createdAt,value
2019-02-07T00:00:50.851Z,33.67
2019-02-07T00:03:19.856Z,31.52
2019-02-07T00:05:48.937Z,33.85
2019-02-07T00:08:18.392Z,32.25
2019-02-07T00:10:47.447Z,34.45
2019-02-07T00:13:16.668Z,33.60
2019-02-07T00:15:45.652Z,33.83
2019-02-07T00:18:14.855Z,33.42
2019-02-07T00:20:44.574Z,31.97
2019-02-07T00:23:13.480Z,32.03
2019-02-07T00:25:42.428Z,35.23
2019-02-07T00:28:11.348Z,33.65
2019-02-07T00:30:40.328Z,34.05
2019-02-07T00:33:09.204Z,34.73
2019-02-07T00:35:38.240Z,33.83
2019-02-07T00:38:07.156Z,32.98
2019-02-07T00:40:36.144Z,32.63
2019-02-07T00:43:05.140Z,33.42
2019-02-07T00:45:34.076Z,33.40
2019-02-07T00:48:03.392Z,34.15
2019-02-07T00:50:32.189Z,31.85
2019-02-07T00:53:01.167Z,32.83
2019-02-07T00:55:30.138Z,31.62
2019-02-07T00:57:59.140Z,31.15
2019-02-07T01:00:28.089Z,33.08
2019-02-07T01:02:57.108Z,31.93
2019-02-07T01:05:26.288Z,33.95
2019-02-07T01:07:55.249Z,33.90
2019-02-07T01:10:25.721Z,32.67
2019-02-07T01:12:55.100Z,32.48
2019-02-07T01:15:25.394Z,30.40
2019-02-07T01:17:54.383Z,30.27
2019-02-07T01:20:23.405Z,30.70
2019-02-07T01:22:52.365Z,30.43
2019-02-07T01:25:21.785Z,30.50
2019-02-07T01:27:50.985Z,30.27
2019-02-07T01:30:21.448Z,30.32
2019-02-07T01:32:50.516Z,29.35
2019-02-07T01:35:19.512Z,28.98
2019-02-07T01:37:48.508Z,30.32
2019-02-07T01:40:18.384Z,28.90
2019-02-07T01:42:47.640Z,28.00
2019-02-07T01:45:19.055Z,30.17
2019-02-07T01:47:48.056Z,28.90
2019-02-07T01:50:19.148Z,29.23
2019-02-07T01:52:48.509Z,29.92
2019-02-07T01:55:17.808Z,29.82
2019-02-07T01:57:46.761Z,28.70
2019-02-07T02:00:17.050Z,28.20
2019-02-07T02:02:46.772Z,28.25
2019-02-07T02:05:17.072Z,27.87
2019-02-07T02:07:47.156Z,28.77
2019-02-07T02:10:18.844Z,28.52
2019-02-07T02:12:47.812Z,29.30
2019-02-07T02:15:24.729Z,28.77
2019-02-07T02:17:51.095Z,29.07
2019-02-07T02:20:21.323Z,28.25
2019-02-07T02:22:50.688Z,28.27
2019-02-07T02:25:19.828Z,30.35
2019-02-07T02:27:48.740Z,27.35
2019-02-07T02:30:21.662Z,28.40
2019-02-07T02:32:50.625Z,27.73
2019-02-07T02:35:20.191Z,28.17
2019-02-07T02:37:49.157Z,29.27
2019-02-07T02:40:18.437Z,27.25
2019-02-07T02:42:47.420Z,27.55
2019-02-07T02:45:16.901Z,27.85
2019-02-07T02:47:45.905Z,27.98
2019-02-07T02:50:16.684Z,28.00
2019-02-07T02:52:45.845Z,28.77
2019-02-07T02:55:40.340Z,29.27
2019-02-07T02:58:09.319Z,26.93
2019-02-07T03:00:58.061Z,28.55
2019-02-07T03:03:49.374Z,27.67
2019-02-07T03:06:36.280Z,27.58
2019-02-07T03:09:36.257Z,28.23
2019-02-07T03:12:40.161Z,28.10
2019-02-07T03:15:26.257Z,28.05
2019-02-07T03:18:12.862Z,27.80
2019-02-07T03:21:09.948Z,28.20
2019-02-07T03:24:08.108Z,28.30
2019-02-07T03:26:57.656Z,29.63
2019-02-07T03:29:48.581Z,29.27
2019-02-07T03:32:26.793Z,28.40
2019-02-07T03:35:18.049Z,32.08
2019-02-07T03:37:57.536Z,32.58
2019-02-07T03:40:46.805Z,28.80
2019-02-07T03:43:25.460Z,30.17
2019-02-07T03:46:16.552Z,29.32
2019-02-07T03:48:53.600Z,27.67
2019-02-07T03:51:40.348Z,29.20
2019-02-07T03:54:28.399Z,29.72
2019-02-07T03:57:14.981Z,30.00
2019-02-07T04:00:08.988Z,27.37
2019-02-07T04:02:56.625Z,29.07
2019-02-07T04:05:43.597Z,28.87
2019-02-07T04:08:37.871Z,30.37
2019-02-07T04:11:25.052Z,31.02
2019-02-07T04:14:31.487Z,31.12
2019-02-07T04:17:24.811Z,29.00
2019-02-07T04:20:15.517Z,29.95
2019-02-07T04:22:59.691Z,30.57
2019-02-07T04:25:47.657Z,28.05
2019-02-07T04:28:22.100Z,29.82
2019-02-07T04:31:08.788Z,30.50
2019-02-07T04:33:55.768Z,29.95
2019-02-07T04:36:42.745Z,31.85
2019-02-07T04:39:40.533Z,29.63
2019-02-07T04:42:26.840Z,34.23
2019-02-07T04:45:14.713Z,30.27
2019-02-07T04:48:04.749Z,30.70
2019-02-07T04:50:57.119Z,29.72
2019-02-07T04:53:39.629Z,29.85
2019-02-07T04:56:24.140Z,30.72
2019-02-07T04:59:21.204Z,30.65
2019-02-07T05:02:24.645Z,31.55
2019-02-07T05:05:18.729Z,30.52
2019-02-07T05:08:06.800Z,30.92
2019-02-07T05:10:53.432Z,32.00
2019-02-07T05:13:33.445Z,33.15
2019-02-07T05:16:13.843Z,31.70
2019-02-07T05:18:53.288Z,30.60
2019-02-07T05:21:41.157Z,34.67
2019-02-07T05:24:32.080Z,31.85
2019-02-07T05:27:38.684Z,31.73
2019-02-07T05:30:29.190Z,32.28
2019-02-07T05:33:17.149Z,32.20
2019-02-07T05:36:03.964Z,31.85
2019-02-07T05:38:46.946Z,32.40
2019-02-07T05:41:29.176Z,33.35
2019-02-07T05:44:17.385Z,32.25
2019-02-07T05:47:01.477Z,31.15
2019-02-07T05:49:57.766Z,32.88
2019-02-07T05:52:52.645Z,32.38
2019-02-07T05:55:41.089Z,31.73
2019-02-07T05:58:28.428Z,31.77
2019-02-07T06:01:18.124Z,30.52
2019-02-07T06:03:53.961Z,28.75
2019-02-07T06:07:00.277Z,30.68
2019-02-07T06:09:49.929Z,33.08
2019-02-07T06:12:46.536Z,30.97
2019-02-07T06:15:31.644Z,32.08
2019-02-07T06:18:19.517Z,29.27
2019-02-07T06:21:13.862Z,31.68
2019-02-07T06:24:14.001Z,32.13
2019-02-07T06:27:17.004Z,31.65
2019-02-07T06:30:04.865Z,30.25
2019-02-07T06:33:07.764Z,31.73
2019-02-07T06:35:44.148Z,33.38
2019-02-07T06:38:30.728Z,32.08
2019-02-07T06:41:16.024Z,31.50
2019-02-07T06:43:51.982Z,32.15
2019-02-07T06:46:46.040Z,32.45
2019-02-07T06:49:36.793Z,31.65
2019-02-07T06:52:27.921Z,29.40
2019-02-07T06:55:15.904Z,32.00
2019-02-07T06:58:02.629Z,30.12
2019-02-07T07:00:49.473Z,34.53
2019-02-07T07:03:37.532Z,32.70
2019-02-07T07:06:25.561Z,33.38
2019-02-07T07:09:09.170Z,32.78
2019-02-07T07:12:06.363Z,31.60
2019-02-07T07:15:03.578Z,29.37
2019-02-07T07:18:03.920Z,32.95
2019-02-07T07:20:50.968Z,32.80
2019-02-07T07:23:37.900Z,32.80
2019-02-07T07:26:31.941Z,30.10
2019-02-07T07:29:19.973Z,33.55
2019-02-07T07:32:08.784Z,30.30
2019-02-07T07:34:50.677Z,32.35
2019-02-07T07:37:39.044Z,32.20
2019-02-07T07:40:27.346Z,31.45
2019-02-07T07:43:18.887Z,30.15
2019-02-07T07:46:04.760Z,32.20
2019-02-07T07:48:47.100Z,31.40
2019-02-07T07:51:35.088Z,31.20
2019-02-07T07:54:23.653Z,30.00
2019-02-07T07:57:14.828Z,31.85
2019-02-07T08:00:04.552Z,30.92
2019-02-07T08:03:07.916Z,31.20
2019-02-07T08:05:47.441Z,31.17
2019-02-07T08:08:34.204Z,31.25
2019-02-07T08:11:25.261Z,32.03
2019-02-07T08:14:12.464Z,32.08
2019-02-07T08:16:59.131Z,30.12
2019-02-07T08:19:51.941Z,31.35
2019-02-07T08:22:38.885Z,31.15
2019-02-07T08:25:35.667Z,33.20
2019-02-07T08:28:16.252Z,30.92
2019-02-07T08:31:13.488Z,30.70
2019-02-07T08:33:55.877Z,30.43
2019-02-07T08:36:53.120Z,32.95
2019-02-07T08:39:39.340Z,31.23
2019-02-07T08:42:39.609Z,29.50
2019-02-07T08:45:35.046Z,31.57
2019-02-07T08:48:23.412Z,30.92
2019-02-07T08:51:12.677Z,30.82
2019-02-07T08:54:05.337Z,29.75
2019-02-07T08:56:59.473Z,32.65
2019-02-07T08:59:50.905Z,29.72
2019-02-07T09:02:38.350Z,32.73
2019-02-07T09:05:42.058Z,30.62
2019-02-07T09:08:26.816Z,31.73
2019-02-07T09:11:30.104Z,29.80
2019-02-07T09:14:21.300Z,31.87
2019-02-07T09:17:15.184Z,29.60
2019-02-07T09:20:09.297Z,30.10
2019-02-07T09:22:55.382Z,30.65
2019-02-07T09:25:41.892Z,29.70
2019-02-07T09:28:39.116Z,31.05
2019-02-07T09:31:25.963Z,33.10
2019-02-07T09:34:17.018Z,30.68
2019-02-07T09:37:07.968Z,31.60
2019-02-07T09:40:01.720Z,29.85
2019-02-07T09:42:48.392Z,33.05
2019-02-07T09:45:37.660Z,31.65
2019-02-07T09:48:25.613Z,32.48
2019-02-07T09:51:05.208Z,31.07
2019-02-07T09:53:45.728Z,30.75
2019-02-07T09:56:32.604Z,30.62
2019-02-07T09:59:26.893Z,29.63
2019-02-07T10:02:10.584Z,28.10
2019-02-07T10:04:57.217Z,30.30
2019-02-07T10:07:43.772Z,29.80
2019-02-07T10:10:23.378Z,27.55
2019-02-07T10:13:14.548Z,29.20
2019-02-07T10:16:03.912Z,26.12
2019-02-07T10:18:51.243Z,28.87
2019-02-07T10:21:54.803Z,28.40
2019-02-07T10:24:42.895Z,28.52
2019-02-07T10:27:22.708Z,27.00
2019-02-07T10:30:10.692Z,28.65
2019-02-07T10:32:55.612Z,26.73
2019-02-07T10:35:43.500Z,25.32
2019-02-07T10:38:40.596Z,26.65
2019-02-07T10:41:32.065Z,25.85
2019-02-07T10:44:38.725Z,25.80
2019-02-07T10:47:26.685Z,26.75
2019-02-07T10:50:27.376Z,25.37
2019-02-07T10:53:21.284Z,24.12
2019-02-07T10:56:17.360Z,24.50
2019-02-07T10:59:14.213Z,24.60
2019-02-07T11:02:13.444Z,23.40
2019-02-07T11:05:00.378Z,22.40
2019-02-07T11:08:00.622Z,22.10
2019-02-07T11:10:56.681Z,23.00
2019-02-07T11:13:56.897Z,23.62
2019-02-07T11:16:51.061Z,21.35
2019-02-07T11:19:54.184Z,22.50
2019-02-07T11:22:47.228Z,22.80
2019-02-07T11:25:44.717Z,24.63
2019-02-07T11:28:39.700Z,21.87
2019-02-07T11:31:18.204Z,22.70
2019-02-07T11:34:04.856Z,24.50
2019-02-07T11:36:54.131Z,22.65
2019-02-07T11:39:53.628Z,22.45
2019-02-07T11:42:51.064Z,22.15
2019-02-07T11:45:37.405Z,23.73
2019-02-07T11:48:31.824Z,24.57
2019-02-07T11:51:27.504Z,22.60
2019-02-07T11:54:27.380Z,23.05
2019-02-07T11:57:30.833Z,23.60
2019-02-07T12:00:18.951Z,22.82
2019-02-07T12:03:05.628Z,24.00
2019-02-07T12:05:56.333Z,22.90
2019-02-07T12:08:53.344Z,21.97
2019-02-07T12:11:50.597Z,22.23
2019-02-07T12:14:31.296Z,22.00
2019-02-07T12:17:17.800Z,22.35
2019-02-07T12:20:24.173Z,22.30
2019-02-07T12:23:11.052Z,22.85
2019-02-07T12:25:59.280Z,21.85
2019-02-07T12:28:39.791Z,21.42
2019-02-07T12:31:33.020Z,22.15
2019-02-07T12:34:20.692Z,21.90
2019-02-07T12:36:56.118Z,20.50
2019-02-07T12:39:35.060Z,22.37
2019-02-07T12:42:17.348Z,20.40
2019-02-07T12:45:05.300Z,18.67
2019-02-07T12:48:08.351Z,19.67
2019-02-07T12:51:02.304Z,18.17
2019-02-07T12:53:50.297Z,20.85
2019-02-07T12:56:51.172Z,15.33
2019-02-07T12:59:54.765Z,14.17
2019-02-07T13:02:41.061Z,17.40
2019-02-07T13:05:32.810Z,27.40
2019-02-07T13:08:10.568Z,14.97
2019-02-07T13:10:56.633Z,20.17
2019-02-07T13:13:43.444Z,14.80
2019-02-07T13:16:23.544Z,19.47
2019-02-07T13:19:10.665Z,16.37
2019-02-07T13:21:53.512Z,16.90
2019-02-07T13:24:41.493Z,17.17
2019-02-07T13:27:29.718Z,22.40
2019-02-07T13:30:19.226Z,30.20
2019-02-07T13:32:59.501Z,58.03
2019-02-07T13:35:46.199Z,18.73
2019-02-07T13:38:25.532Z,51.60
2019-02-07T13:41:19.556Z,13.87
2019-02-07T13:44:13.304Z,14.10
2019-02-07T13:46:53.307Z,13.97
2019-02-07T13:49:34.788Z,14.17
2019-02-07T13:52:29.347Z,14.93
2019-02-07T13:55:12.099Z,13.57
2019-02-07T13:57:58.852Z,12.57
2019-02-07T14:00:55.968Z,12.30
2019-02-07T14:03:56.032Z,12.70
2019-02-07T14:06:56.025Z,13.20
2019-02-07T14:09:52.944Z,11.80
2019-02-07T14:12:39.441Z,12.20
2019-02-07T14:15:28.417Z,11.90
2019-02-07T14:18:27.190Z,11.40
2019-02-07T14:21:08.160Z,12.23
2019-02-07T14:23:55.106Z,11.63
2019-02-07T14:26:55.444Z,12.33
2019-02-07T14:29:42.601Z,12.40
2019-02-07T14:32:29.701Z,11.30
2019-02-07T14:35:27.048Z,9.40
2019-02-07T14:38:14.449Z,9.50
2019-02-07T14:41:20.776Z,7.30
2019-02-07T14:44:02.580Z,8.37
2019-02-07T14:46:47.895Z,8.37
2019-02-07T14:49:17.076Z,8.00
2019-02-07T14:51:46.327Z,6.90
2019-02-07T14:54:15.780Z,7.17
2019-02-07T14:56:44.898Z,7.10
2019-02-07T14:59:14.160Z,7.80
2019-02-07T15:01:43.097Z,7.77
2019-02-07T15:04:12.089Z,8.40
2019-02-07T15:06:41.548Z,6.57
2019-02-07T15:09:16.568Z,7.53
2019-02-07T15:11:45.556Z,6.80
2019-02-07T15:14:14.620Z,6.90
2019-02-07T15:16:43.693Z,7.67
2019-02-07T15:19:12.708Z,9.30
2019-02-07T15:21:41.740Z,10.00
2019-02-07T15:24:11.204Z,10.07
2019-02-07T15:26:40.481Z,13.33
2019-02-07T15:29:09.424Z,15.50
2019-02-07T15:31:38.331Z,14.60
2019-02-07T15:34:08.796Z,17.63
2019-02-07T15:36:38.936Z,15.93
2019-02-07T15:39:10.248Z,16.07
2019-02-07T15:41:39.240Z,16.20
2019-02-07T15:44:08.237Z,16.80
2019-02-07T15:46:37.292Z,15.40
2019-02-07T15:49:06.995Z,17.10
2019-02-07T15:51:35.860Z,15.27
2019-02-07T15:54:05.509Z,16.17
2019-02-07T15:56:34.528Z,14.67
2019-02-07T15:59:28.872Z,15.10
2019-02-07T16:02:11.460Z,15.33
2019-02-07T16:04:42.880Z,14.50
2019-02-07T16:07:12.061Z,16.43
2019-02-07T16:09:41.442Z,15.70
2019-02-07T16:12:10.424Z,14.93
2019-02-07T16:14:39.968Z,14.83
2019-02-07T16:17:08.952Z,15.93
2019-02-07T16:19:37.865Z,16.63
2019-02-07T16:22:06.824Z,16.13
2019-02-07T16:24:35.876Z,16.50
2019-02-07T16:27:05.773Z,17.40
2019-02-07T16:29:34.777Z,16.40
2019-02-07T16:32:04.961Z,17.23
2019-02-07T16:34:33.874Z,18.07
2019-02-07T16:37:03.111Z,17.90
2019-02-07T16:39:31.976Z,17.23
2019-02-07T16:42:06.079Z,17.07
2019-02-07T16:44:31.623Z,17.93
2019-02-07T16:47:00.618Z,17.83
2019-02-07T16:49:29.576Z,18.00
2019-02-07T16:51:58.456Z,19.17
2019-02-07T16:54:27.628Z,18.70
2019-02-07T16:56:56.533Z,19.27
2019-02-07T16:59:25.538Z,17.63
2019-02-07T17:01:54.556Z,18.53
2019-02-07T17:04:23.540Z,18.77
2019-02-07T17:06:52.477Z,19.25
2019-02-07T17:09:30.522Z,18.90
2019-02-07T17:12:01.019Z,17.33
2019-02-07T17:14:30.325Z,18.73
2019-02-07T17:17:18.345Z,18.40
2019-02-07T17:19:47.291Z,17.37
2019-02-07T17:22:16.252Z,19.27
2019-02-07T17:24:45.908Z,18.60
2019-02-07T17:27:15.156Z,18.50
2019-02-07T17:29:44.316Z,18.20
2019-02-07T17:32:13.600Z,19.13
2019-02-07T17:34:42.488Z,20.30
2019-02-07T17:37:11.281Z,18.43
2019-02-07T17:39:40.264Z,20.40
2019-02-07T17:42:09.208Z,20.90
2019-02-07T17:44:38.194Z,19.50
2019-02-07T17:47:10.265Z,18.63
2019-02-07T17:49:38.200Z,18.82
2019-02-07T17:52:07.554Z,17.93
2019-02-07T17:54:36.623Z,19.07
2019-02-07T17:57:05.877Z,17.50
2019-02-07T17:59:34.874Z,15.97
2019-02-07T18:02:06.316Z,16.05
2019-02-07T18:04:35.343Z,16.00
2019-02-07T18:07:04.936Z,16.43
2019-02-07T18:09:33.857Z,17.47
2019-02-07T18:12:02.786Z,20.23
2019-02-07T18:14:31.664Z,18.85
2019-02-07T18:17:00.605Z,20.25
2019-02-07T18:19:29.616Z,19.48
2019-02-07T18:21:58.608Z,21.52
2019-02-07T18:24:27.845Z,20.10
2019-02-07T18:26:57.456Z,21.70
2019-02-07T18:29:26.366Z,19.57
2019-02-07T18:31:55.243Z,21.33
2019-02-07T18:34:24.444Z,21.90
2019-02-07T18:36:53.248Z,22.52
2019-02-07T18:39:22.228Z,23.57
2019-02-07T18:41:51.652Z,22.20
2019-02-07T18:44:20.541Z,20.55
2019-02-07T18:46:49.460Z,21.00
2019-02-07T18:49:18.408Z,20.68
2019-02-07T18:51:47.232Z,20.17
2019-02-07T18:54:16.115Z,22.13
2019-02-07T18:56:45.396Z,19.65
2019-02-07T18:59:14.412Z,21.03
2019-02-07T19:01:43.491Z,20.80
2019-02-07T19:04:13.380Z,23.20
2019-02-07T19:06:42.388Z,22.73
2019-02-07T19:09:11.365Z,19.77
2019-02-07T19:11:40.264Z,20.05
2019-02-07T19:14:09.452Z,19.17
2019-02-07T19:16:38.409Z,17.98
2019-02-07T19:19:07.337Z,18.10
2019-02-07T19:21:36.233Z,18.53
2019-02-07T19:24:05.723Z,17.90
2019-02-07T19:26:34.680Z,18.15
2019-02-07T19:29:04.277Z,18.05
2019-02-07T19:31:33.519Z,17.73
2019-02-07T19:34:02.464Z,17.05
2019-02-07T19:36:31.828Z,17.17
2019-02-07T19:39:00.772Z,18.90
2019-02-07T19:41:29.562Z,19.32
2019-02-07T19:43:58.629Z,18.40
2019-02-07T19:46:27.889Z,19.02
2019-02-07T19:48:56.909Z,17.60
2019-02-07T19:51:25.796Z,18.05
2019-02-07T19:53:54.796Z,18.67
2019-02-07T19:56:23.632Z,18.17
2019-02-07T19:58:52.674Z,17.73
2019-02-07T20:01:21.758Z,18.52
2019-02-07T20:03:50.858Z,18.82
2019-02-07T20:06:19.811Z,18.17
2019-02-07T20:08:48.808Z,20.50
2019-02-07T20:11:17.704Z,19.12
2019-02-07T20:13:46.690Z,18.37
2019-02-07T20:16:15.772Z,18.40
2019-02-07T20:18:45.384Z,17.57
2019-02-07T20:21:14.704Z,19.70
2019-02-07T20:23:43.950Z,19.15
2019-02-07T20:26:12.880Z,19.12
2019-02-07T20:28:42.127Z,17.60
2019-02-07T20:31:12.180Z,17.15
2019-02-07T20:33:41.464Z,19.23
2019-02-07T20:36:10.560Z,21.42
2019-02-07T20:38:39.516Z,20.72
2019-02-07T20:41:08.460Z,19.37
2019-02-07T20:43:37.900Z,18.60
2019-02-07T20:46:07.446Z,18.45
2019-02-07T20:48:36.427Z,18.48
2019-02-07T20:51:05.430Z,18.70
2019-02-07T20:53:34.232Z,17.62
2019-02-07T20:56:03.354Z,16.00
2019-02-07T20:58:32.356Z,15.80
2019-02-07T21:01:01.564Z,16.60
2019-02-07T21:03:30.844Z,16.52
2019-02-07T21:06:00.047Z,16.45
2019-02-07T21:08:29.588Z,15.20
2019-02-07T21:10:58.580Z,14.80
2019-02-07T21:13:27.564Z,15.28
2019-02-07T21:15:56.481Z,14.87
2019-02-07T21:18:25.527Z,17.92
2019-02-07T21:20:54.411Z,15.23
2019-02-07T21:23:23.324Z,16.10
2019-02-07T21:25:52.860Z,15.20
2019-02-07T21:28:22.148Z,15.00
2019-02-07T21:30:51.201Z,14.23
2019-02-07T21:33:20.149Z,13.78
2019-02-07T21:35:49.140Z,14.33
2019-02-07T21:38:18.065Z,13.75
2019-02-07T21:40:47.162Z,13.25
2019-02-07T21:43:16.448Z,15.30
2019-02-07T21:45:45.350Z,14.15
2019-02-07T21:48:14.239Z,14.80
2019-02-07T21:50:43.211Z,14.03
2019-02-07T21:53:12.172Z,13.10
2019-02-07T21:55:41.172Z,12.78
2019-02-07T21:58:12.095Z,12.10
2019-02-07T22:00:43.248Z,12.85
2019-02-07T22:03:14.084Z,13.50
2019-02-07T22:05:43.751Z,14.58
2019-02-07T22:08:12.980Z,11.97
2019-02-07T22:10:42.284Z,12.63
2019-02-07T22:13:11.881Z,12.25
2019-02-07T22:15:40.836Z,12.07
2019-02-07T22:18:10.290Z,12.00
2019-02-07T22:20:39.268Z,10.93
2019-02-07T22:23:08.260Z,10.60
2019-02-07T22:25:37.245Z,11.00
2019-02-07T22:28:07.408Z,11.60
2019-02-07T22:30:36.704Z,11.28
2019-02-07T22:33:06.300Z,10.68
2019-02-07T22:35:35.554Z,10.10
2019-02-07T22:38:05.524Z,10.72
2019-02-07T22:40:34.537Z,10.82
2019-02-07T22:43:03.776Z,11.48
2019-02-07T22:45:32.701Z,9.55
2019-02-07T22:48:01.708Z,10.13
2019-02-07T22:50:31.676Z,10.13
2019-02-07T22:53:01.277Z,10.15
2019-02-07T22:55:30.272Z,9.13
2019-02-07T22:57:59.562Z,9.00
2019-02-07T23:01:09.588Z,9.95
2019-02-07T23:03:40.596Z,7.72
2019-02-07T23:06:10.064Z,8.90
2019-02-07T23:08:39.359Z,8.75
2019-02-07T23:11:09.356Z,8.43
2019-02-07T23:13:38.428Z,7.40
2019-02-07T23:16:09.011Z,7.10
2019-02-07T23:18:38.816Z,7.62
2019-02-07T23:21:08.567Z,7.75
2019-02-07T23:23:37.540Z,6.60
2019-02-07T23:26:07.567Z,7.47
2019-02-07T23:28:37.270Z,8.45
2019-02-07T23:31:08.148Z,6.30
2019-02-07T23:33:38.144Z,7.00
2019-02-07T23:36:08.538Z,7.55
2019-02-07T23:38:37.547Z,6.65
2019-02-07T23:41:10.497Z,7.30
2019-02-07T23:43:45.966Z,6.60
2019-02-07T23:46:11.303Z,6.85
2019-02-07T23:48:40.641Z,5.53
2019-02-07T23:51:09.849Z,6.20
2019-02-07T23:53:38.832Z,7.12
2019-02-07T23:56:08.539Z,6.65
2019-02-07T23:58:37.656Z,7.05
